sensor_id;sensor_type;location;lat;lon;timestamp;P1;durP1;ratioP1;P2;durP2;ratioP2
31818;SDS011;18384;48.860;9.188;2023-04-16T00:00:52;17.95;;;13.07;;
31818;SDS011;18384;48.860;9.188;2023-04-16T00:03:19;16.70;;;12.02;;
31818;SDS011;18384;48.860;9.188;2023-04-16T00:08:11;16.33;;;11.93;;
31818;SDS011;18384;48.860;9.188;2023-04-16T00:10:37;17.40;;;12.63;;
31818;SDS011;18384;48.860;9.188;2023-04-16T00:13:03;17.05;;;12.02;;
31818;SDS011;18384;48.860;9.188;2023-04-16T00:15:30;15.98;;;11.77;;
31818;SDS011;18384;48.860;9.188;2023-04-16T00:17:56;18.10;;;12.43;;
31818;SDS011;18384;48.860;9.188;2023-04-16T00:20:22;15.90;;;11.82;;
31818;SDS011;18384;48.860;9.188;2023-04-16T00:22:48;16.67;;;11.95;;
31818;SDS011;18384;48.860;9.188;2023-04-16T00:25:15;16.58;;;10.95;;
31818;SDS011;18384;48.860;9.188;2023-04-16T00:27:41;15.35;;;10.95;;
31818;SDS011;18384;48.860;9.188;2023-04-16T00:30:07;18.67;;;11.50;;
31818;SDS011;18384;48.860;9.188;2023-04-16T00:35:00;16.85;;;10.73;;
31818;SDS011;18384;48.860;9.188;2023-04-16T00:37:26;14.65;;;11.23;;
31818;SDS011;18384;48.860;9.188;2023-04-16T00:39:52;15.73;;;10.98;;
31818;SDS011;18384;48.860;9.188;2023-04-16T00:42:19;13.75;;;10.60;;
31818;SDS011;18384;48.860;9.188;2023-04-16T00:44:45;17.80;;;11.15;;
31818;SDS011;18384;48.860;9.188;2023-04-16T00:47:11;14.95;;;10.88;;
31818;SDS011;18384;48.860;9.188;2023-04-16T00:49:37;15.05;;;10.15;;
31818;SDS011;18384;48.860;9.188;2023-04-16T00:52:03;14.18;;;10.25;;
31818;SDS011;18384;48.860;9.188;2023-04-16T00:54:30;15.32;;;10.40;;
31818;SDS011;18384;48.860;9.188;2023-04-16T00:56:57;14.85;;;10.68;;
31818;SDS011;18384;48.860;9.188;2023-04-16T00:59:24;19.35;;;10.18;;
31818;SDS011;18384;48.860;9.188;2023-04-16T01:01:51;13.60;;;10.50;;
31818;SDS011;18384;48.860;9.188;2023-04-16T01:04:17;14.38;;;10.38;;
31818;SDS011;18384;48.860;9.188;2023-04-16T01:06:43;13.13;;;10.18;;
31818;SDS011;18384;48.860;9.188;2023-04-16T01:09:09;13.95;;;10.43;;
31818;SDS011;18384;48.860;9.188;2023-04-16T01:14:02;12.35;;;9.45;;
31818;SDS011;18384;48.860;9.188;2023-04-16T01:16:28;13.38;;;9.63;;
31818;SDS011;18384;48.860;9.188;2023-04-16T01:18:55;14.68;;;10.65;;
31818;SDS011;18384;48.860;9.188;2023-04-16T01:21:21;12.85;;;9.50;;
31818;SDS011;18384;48.860;9.188;2023-04-16T01:23:47;13.05;;;9.25;;
31818;SDS011;18384;48.860;9.188;2023-04-16T01:26:13;12.98;;;9.77;;
31818;SDS011;18384;48.860;9.188;2023-04-16T01:31:05;11.70;;;8.63;;
31818;SDS011;18384;48.860;9.188;2023-04-16T01:33:31;15.05;;;9.25;;
31818;SDS011;18384;48.860;9.188;2023-04-16T01:35:57;12.02;;;9.15;;
31818;SDS011;18384;48.860;9.188;2023-04-16T01:38:45;13.25;;;8.88;;
31818;SDS011;18384;48.860;9.188;2023-04-16T01:41:04;11.68;;;7.78;;
31818;SDS011;18384;48.860;9.188;2023-04-16T01:43:30;11.05;;;8.18;;
31818;SDS011;18384;48.860;9.188;2023-04-16T01:46:11;10.38;;;7.35;;
31818;SDS011;18384;48.860;9.188;2023-04-16T01:48:55;12.85;;;8.23;;
31818;SDS011;18384;48.860;9.188;2023-04-16T01:51:22;12.40;;;8.77;;
31818;SDS011;18384;48.860;9.188;2023-04-16T01:53:49;11.12;;;8.13;;
31818;SDS011;18384;48.860;9.188;2023-04-16T01:56:15;11.27;;;8.68;;
31818;SDS011;18384;48.860;9.188;2023-04-16T01:58:41;12.20;;;9.02;;
31818;SDS011;18384;48.860;9.188;2023-04-16T02:01:08;14.35;;;8.88;;
31818;SDS011;18384;48.860;9.188;2023-04-16T02:03:34;11.88;;;8.68;;
31818;SDS011;18384;48.860;9.188;2023-04-16T02:06:00;11.75;;;8.65;;
31818;SDS011;18384;48.860;9.188;2023-04-16T02:08:26;14.35;;;9.07;;
31818;SDS011;18384;48.860;9.188;2023-04-16T02:10:52;11.93;;;8.45;;
31818;SDS011;18384;48.860;9.188;2023-04-16T02:13:20;13.93;;;8.32;;
31818;SDS011;18384;48.860;9.188;2023-04-16T02:15:48;12.60;;;9.05;;
31818;SDS011;18384;48.860;9.188;2023-04-16T02:18:15;12.85;;;9.25;;
31818;SDS011;18384;48.860;9.188;2023-04-16T02:20:42;12.70;;;9.38;;
31818;SDS011;18384;48.860;9.188;2023-04-16T02:23:10;12.07;;;9.20;;
31818;SDS011;18384;48.860;9.188;2023-04-16T02:25:39;12.18;;;9.57;;
31818;SDS011;18384;48.860;9.188;2023-04-16T02:28:09;14.63;;;9.77;;
31818;SDS011;18384;48.860;9.188;2023-04-16T02:30:38;12.60;;;9.35;;
31818;SDS011;18384;48.860;9.188;2023-04-16T02:33:05;13.70;;;9.50;;
31818;SDS011;18384;48.860;9.188;2023-04-16T02:35:33;15.60;;;10.68;;
31818;SDS011;18384;48.860;9.188;2023-04-16T02:38:00;13.38;;;9.18;;
31818;SDS011;18384;48.860;9.188;2023-04-16T02:40:28;14.60;;;10.13;;
31818;SDS011;18384;48.860;9.188;2023-04-16T02:42:55;14.98;;;9.93;;
31818;SDS011;18384;48.860;9.188;2023-04-16T02:45:22;16.25;;;10.32;;
31818;SDS011;18384;48.860;9.188;2023-04-16T02:47:49;14.85;;;10.57;;
31818;SDS011;18384;48.860;9.188;2023-04-16T02:50:16;13.57;;;10.07;;
31818;SDS011;18384;48.860;9.188;2023-04-16T02:52:42;13.57;;;10.23;;
31818;SDS011;18384;48.860;9.188;2023-04-16T02:55:09;12.77;;;9.85;;
31818;SDS011;18384;48.860;9.188;2023-04-16T02:57:35;15.25;;;10.13;;
31818;SDS011;18384;48.860;9.188;2023-04-16T03:00:02;14.27;;;9.95;;
31818;SDS011;18384;48.860;9.188;2023-04-16T03:02:31;17.95;;;10.98;;
31818;SDS011;18384;48.860;9.188;2023-04-16T03:04:58;16.45;;;10.05;;
31818;SDS011;18384;48.860;9.188;2023-04-16T03:07:24;13.62;;;9.27;;
31818;SDS011;18384;48.860;9.188;2023-04-16T03:09:50;16.05;;;10.27;;
31818;SDS011;18384;48.860;9.188;2023-04-16T03:12:16;14.43;;;10.20;;
31818;SDS011;18384;48.860;9.188;2023-04-16T03:14:42;15.77;;;10.68;;
31818;SDS011;18384;48.860;9.188;2023-04-16T03:17:08;15.38;;;10.98;;
31818;SDS011;18384;48.860;9.188;2023-04-16T03:19:34;15.98;;;9.77;;
31818;SDS011;18384;48.860;9.188;2023-04-16T03:22:00;15.95;;;10.55;;
31818;SDS011;18384;48.860;9.188;2023-04-16T03:24:27;14.13;;;9.90;;
31818;SDS011;18384;48.860;9.188;2023-04-16T03:26:53;13.13;;;9.23;;
31818;SDS011;18384;48.860;9.188;2023-04-16T03:29:22;13.40;;;9.32;;
31818;SDS011;18384;48.860;9.188;2023-04-16T03:31:48;15.15;;;9.98;;
31818;SDS011;18384;48.860;9.188;2023-04-16T03:34:14;16.17;;;10.65;;
31818;SDS011;18384;48.860;9.188;2023-04-16T03:36:40;11.90;;;9.18;;
31818;SDS011;18384;48.860;9.188;2023-04-16T03:39:06;13.62;;;9.35;;
31818;SDS011;18384;48.860;9.188;2023-04-16T03:41:32;14.75;;;9.85;;
31818;SDS011;18384;48.860;9.188;2023-04-16T03:43:58;13.35;;;9.18;;
31818;SDS011;18384;48.860;9.188;2023-04-16T03:46:24;15.35;;;11.35;;
31818;SDS011;18384;48.860;9.188;2023-04-16T03:48:50;17.02;;;10.70;;
31818;SDS011;18384;48.860;9.188;2023-04-16T03:51:17;16.75;;;10.25;;
31818;SDS011;18384;48.860;9.188;2023-04-16T03:53:43;15.55;;;11.05;;
31818;SDS011;18384;48.860;9.188;2023-04-16T03:56:09;14.98;;;10.80;;
31818;SDS011;18384;48.860;9.188;2023-04-16T03:58:35;18.00;;;11.88;;
31818;SDS011;18384;48.860;9.188;2023-04-16T04:01:01;19.65;;;11.85;;
31818;SDS011;18384;48.860;9.188;2023-04-16T04:03:27;19.10;;;12.20;;
31818;SDS011;18384;48.860;9.188;2023-04-16T04:05:53;22.40;;;11.85;;
31818;SDS011;18384;48.860;9.188;2023-04-16T04:08:19;18.35;;;12.43;;
31818;SDS011;18384;48.860;9.188;2023-04-16T04:10:46;17.25;;;12.82;;
31818;SDS011;18384;48.860;9.188;2023-04-16T04:13:12;18.05;;;11.95;;
31818;SDS011;18384;48.860;9.188;2023-04-16T04:15:38;18.77;;;12.73;;
31818;SDS011;18384;48.860;9.188;2023-04-16T04:18:04;19.95;;;12.35;;
31818;SDS011;18384;48.860;9.188;2023-04-16T04:20:30;21.33;;;13.73;;
31818;SDS011;18384;48.860;9.188;2023-04-16T04:22:56;19.60;;;13.07;;
31818;SDS011;18384;48.860;9.188;2023-04-16T04:25:23;19.30;;;12.48;;
31818;SDS011;18384;48.860;9.188;2023-04-16T04:27:49;19.37;;;12.90;;
31818;SDS011;18384;48.860;9.188;2023-04-16T04:30:15;19.08;;;11.50;;
31818;SDS011;18384;48.860;9.188;2023-04-16T04:32:41;20.12;;;12.45;;
31818;SDS011;18384;48.860;9.188;2023-04-16T04:35:07;18.05;;;12.37;;
31818;SDS011;18384;48.860;9.188;2023-04-16T04:37:34;18.58;;;12.73;;
31818;SDS011;18384;48.860;9.188;2023-04-16T04:40:00;20.35;;;12.50;;
31818;SDS011;18384;48.860;9.188;2023-04-16T04:42:26;19.37;;;13.38;;
31818;SDS011;18384;48.860;9.188;2023-04-16T04:44:52;19.42;;;13.02;;
31818;SDS011;18384;48.860;9.188;2023-04-16T04:47:18;20.02;;;12.77;;
31818;SDS011;18384;48.860;9.188;2023-04-16T04:49:44;19.55;;;12.98;;
31818;SDS011;18384;48.860;9.188;2023-04-16T04:52:10;21.62;;;14.10;;
31818;SDS011;18384;48.860;9.188;2023-04-16T04:54:36;21.62;;;14.00;;
31818;SDS011;18384;48.860;9.188;2023-04-16T04:57:06;21.23;;;13.32;;
31818;SDS011;18384;48.860;9.188;2023-04-16T04:59:32;22.25;;;14.50;;
31818;SDS011;18384;48.860;9.188;2023-04-16T05:01:58;27.40;;;16.48;;
31818;SDS011;18384;48.860;9.188;2023-04-16T05:04:26;21.80;;;14.18;;
31818;SDS011;18384;48.860;9.188;2023-04-16T05:06:52;25.62;;;15.25;;
31818;SDS011;18384;48.860;9.188;2023-04-16T05:09:18;25.90;;;15.25;;
31818;SDS011;18384;48.860;9.188;2023-04-16T05:11:44;26.02;;;16.12;;
31818;SDS011;18384;48.860;9.188;2023-04-16T05:14:10;24.87;;;15.73;;
31818;SDS011;18384;48.860;9.188;2023-04-16T05:16:37;24.92;;;14.93;;
31818;SDS011;18384;48.860;9.188;2023-04-16T05:19:03;26.02;;;16.02;;
31818;SDS011;18384;48.860;9.188;2023-04-16T05:21:29;26.02;;;14.73;;
31818;SDS011;18384;48.860;9.188;2023-04-16T05:23:55;24.42;;;14.70;;
31818;SDS011;18384;48.860;9.188;2023-04-16T05:26:21;27.85;;;16.42;;
31818;SDS011;18384;48.860;9.188;2023-04-16T05:28:47;27.50;;;17.80;;
31818;SDS011;18384;48.860;9.188;2023-04-16T05:31:13;30.75;;;17.62;;
31818;SDS011;18384;48.860;9.188;2023-04-16T05:33:39;31.58;;;18.95;;
31818;SDS011;18384;48.860;9.188;2023-04-16T05:36:06;29.77;;;17.62;;
31818;SDS011;18384;48.860;9.188;2023-04-16T05:38:32;33.35;;;19.30;;
31818;SDS011;18384;48.860;9.188;2023-04-16T05:40:58;31.45;;;18.20;;
31818;SDS011;18384;48.860;9.188;2023-04-16T05:43:24;36.97;;;20.95;;
31818;SDS011;18384;48.860;9.188;2023-04-16T05:45:50;34.17;;;19.62;;
31818;SDS011;18384;48.860;9.188;2023-04-16T05:48:16;38.80;;;20.48;;
31818;SDS011;18384;48.860;9.188;2023-04-16T05:50:44;33.75;;;21.50;;
31818;SDS011;18384;48.860;9.188;2023-04-16T05:53:10;33.42;;;20.98;;
31818;SDS011;18384;48.860;9.188;2023-04-16T05:55:38;36.25;;;20.37;;
31818;SDS011;18384;48.860;9.188;2023-04-16T06:00:31;32.00;;;19.90;;
31818;SDS011;18384;48.860;9.188;2023-04-16T06:02:57;40.30;;;21.23;;
31818;SDS011;18384;48.860;9.188;2023-04-16T06:05:26;33.65;;;20.90;;
31818;SDS011;18384;48.860;9.188;2023-04-16T06:07:52;38.53;;;22.08;;
31818;SDS011;18384;48.860;9.188;2023-04-16T06:10:20;37.13;;;22.45;;
31818;SDS011;18384;48.860;9.188;2023-04-16T06:12:46;36.78;;;20.83;;
31818;SDS011;18384;48.860;9.188;2023-04-16T06:15:12;32.88;;;20.02;;
31818;SDS011;18384;48.860;9.188;2023-04-16T06:17:38;41.58;;;21.52;;
31818;SDS011;18384;48.860;9.188;2023-04-16T06:20:05;35.92;;;21.45;;
31818;SDS011;18384;48.860;9.188;2023-04-16T06:22:32;37.03;;;20.90;;
31818;SDS011;18384;48.860;9.188;2023-04-16T06:24:58;35.75;;;21.20;;
31818;SDS011;18384;48.860;9.188;2023-04-16T06:27:25;35.92;;;21.37;;
31818;SDS011;18384;48.860;9.188;2023-04-16T06:29:51;36.53;;;21.80;;
31818;SDS011;18384;48.860;9.188;2023-04-16T06:32:17;39.28;;;21.27;;
31818;SDS011;18384;48.860;9.188;2023-04-16T06:34:43;39.03;;;21.70;;
31818;SDS011;18384;48.860;9.188;2023-04-16T06:37:09;35.55;;;21.60;;
31818;SDS011;18384;48.860;9.188;2023-04-16T06:39:35;35.42;;;20.95;;
31818;SDS011;18384;48.860;9.188;2023-04-16T06:42:02;33.63;;;20.73;;
31818;SDS011;18384;48.860;9.188;2023-04-16T06:44:28;39.25;;;22.80;;
31818;SDS011;18384;48.860;9.188;2023-04-16T06:46:54;37.97;;;22.08;;
31818;SDS011;18384;48.860;9.188;2023-04-16T06:49:21;36.47;;;21.62;;
31818;SDS011;18384;48.860;9.188;2023-04-16T06:51:47;34.30;;;20.60;;
31818;SDS011;18384;48.860;9.188;2023-04-16T06:54:13;35.88;;;21.87;;
31818;SDS011;18384;48.860;9.188;2023-04-16T06:59:05;37.15;;;21.85;;
31818;SDS011;18384;48.860;9.188;2023-04-16T07:01:32;42.00;;;21.17;;
31818;SDS011;18384;48.860;9.188;2023-04-16T07:06:24;35.83;;;20.17;;
31818;SDS011;18384;48.860;9.188;2023-04-16T07:08:51;36.22;;;20.00;;
31818;SDS011;18384;48.860;9.188;2023-04-16T07:13:43;38.22;;;21.48;;
31818;SDS011;18384;48.860;9.188;2023-04-16T07:16:09;34.55;;;20.45;;
31818;SDS011;18384;48.860;9.188;2023-04-16T07:18:35;35.33;;;21.23;;
31818;SDS011;18384;48.860;9.188;2023-04-16T07:21:02;33.15;;;19.83;;
31818;SDS011;18384;48.860;9.188;2023-04-16T07:23:28;33.78;;;20.20;;
31818;SDS011;18384;48.860;9.188;2023-04-16T07:25:55;31.42;;;20.90;;
31818;SDS011;18384;48.860;9.188;2023-04-16T07:28:21;31.98;;;18.98;;
31818;SDS011;18384;48.860;9.188;2023-04-16T07:30:49;34.38;;;19.37;;
31818;SDS011;18384;48.860;9.188;2023-04-16T07:33:15;29.08;;;18.92;;
31818;SDS011;18384;48.860;9.188;2023-04-16T07:35:41;31.05;;;18.12;;
31818;SDS011;18384;48.860;9.188;2023-04-16T07:38:07;28.23;;;17.48;;
31818;SDS011;18384;48.860;9.188;2023-04-16T07:40:35;31.27;;;18.15;;
31818;SDS011;18384;48.860;9.188;2023-04-16T07:43:01;30.92;;;17.77;;
31818;SDS011;18384;48.860;9.188;2023-04-16T07:45:27;31.50;;;18.33;;
31818;SDS011;18384;48.860;9.188;2023-04-16T07:47:53;27.87;;;17.67;;
31818;SDS011;18384;48.860;9.188;2023-04-16T07:50:20;27.25;;;17.00;;
31818;SDS011;18384;48.860;9.188;2023-04-16T07:52:46;30.60;;;17.30;;
31818;SDS011;18384;48.860;9.188;2023-04-16T07:55:12;28.23;;;17.02;;
31818;SDS011;18384;48.860;9.188;2023-04-16T07:57:39;26.60;;;17.05;;
31818;SDS011;18384;48.860;9.188;2023-04-16T08:00:06;25.00;;;16.45;;
31818;SDS011;18384;48.860;9.188;2023-04-16T08:02:33;27.80;;;17.12;;
31818;SDS011;18384;48.860;9.188;2023-04-16T08:04:59;28.87;;;17.30;;
31818;SDS011;18384;48.860;9.188;2023-04-16T08:07:25;28.50;;;16.90;;
31818;SDS011;18384;48.860;9.188;2023-04-16T08:09:51;24.77;;;15.77;;
31818;SDS011;18384;48.860;9.188;2023-04-16T08:12:18;23.00;;;15.57;;
31818;SDS011;18384;48.860;9.188;2023-04-16T08:14:45;24.08;;;15.85;;
31818;SDS011;18384;48.860;9.188;2023-04-16T08:17:12;24.60;;;16.12;;
31818;SDS011;18384;48.860;9.188;2023-04-16T08:19:39;33.58;;;17.37;;
31818;SDS011;18384;48.860;9.188;2023-04-16T08:22:06;22.30;;;14.90;;
31818;SDS011;18384;48.860;9.188;2023-04-16T08:24:32;22.27;;;15.20;;
31818;SDS011;18384;48.860;9.188;2023-04-16T08:26:59;22.60;;;14.70;;
31818;SDS011;18384;48.860;9.188;2023-04-16T08:29:25;23.67;;;14.70;;
31818;SDS011;18384;48.860;9.188;2023-04-16T08:31:51;21.17;;;14.38;;
31818;SDS011;18384;48.860;9.188;2023-04-16T08:34:18;25.17;;;14.85;;
31818;SDS011;18384;48.860;9.188;2023-04-16T08:36:45;23.25;;;14.52;;
31818;SDS011;18384;48.860;9.188;2023-04-16T08:39:11;22.80;;;14.98;;
31818;SDS011;18384;48.860;9.188;2023-04-16T08:41:38;24.55;;;15.25;;
31818;SDS011;18384;48.860;9.188;2023-04-16T08:44:08;26.70;;;15.40;;
31818;SDS011;18384;48.860;9.188;2023-04-16T08:46:44;24.63;;;14.85;;
31818;SDS011;18384;48.860;9.188;2023-04-16T08:49:14;25.77;;;14.63;;
31818;SDS011;18384;48.860;9.188;2023-04-16T08:51:42;21.85;;;14.45;;
31818;SDS011;18384;48.860;9.188;2023-04-16T08:54:17;24.37;;;13.55;;
31818;SDS011;18384;48.860;9.188;2023-04-16T08:56:58;24.20;;;13.75;;
31818;SDS011;18384;48.860;9.188;2023-04-16T08:59:26;21.33;;;13.73;;
31818;SDS011;18384;48.860;9.188;2023-04-16T09:01:57;25.52;;;13.93;;
31818;SDS011;18384;48.860;9.188;2023-04-16T09:04:27;21.08;;;13.98;;
31818;SDS011;18384;48.860;9.188;2023-04-16T09:06:57;22.42;;;13.32;;
31818;SDS011;18384;48.860;9.188;2023-04-16T09:09:26;24.17;;;14.27;;
31818;SDS011;18384;48.860;9.188;2023-04-16T09:11:53;24.63;;;14.82;;
31818;SDS011;18384;48.860;9.188;2023-04-16T09:14:20;27.55;;;15.13;;
31818;SDS011;18384;48.860;9.188;2023-04-16T09:16:47;22.73;;;13.82;;
31818;SDS011;18384;48.860;9.188;2023-04-16T09:19:15;27.85;;;14.63;;
31818;SDS011;18384;48.860;9.188;2023-04-16T09:21:41;23.40;;;13.68;;
31818;SDS011;18384;48.860;9.188;2023-04-16T09:24:10;24.98;;;15.00;;
31818;SDS011;18384;48.860;9.188;2023-04-16T09:26:37;22.67;;;14.20;;
31818;SDS011;18384;48.860;9.188;2023-04-16T09:29:03;22.92;;;14.77;;
31818;SDS011;18384;48.860;9.188;2023-04-16T09:31:29;24.17;;;14.77;;
31818;SDS011;18384;48.860;9.188;2023-04-16T09:34:05;26.02;;;14.87;;
31818;SDS011;18384;48.860;9.188;2023-04-16T09:36:33;25.35;;;15.27;;
31818;SDS011;18384;48.860;9.188;2023-04-16T09:39:01;25.37;;;14.70;;
31818;SDS011;18384;48.860;9.188;2023-04-16T09:41:31;31.30;;;15.27;;
31818;SDS011;18384;48.860;9.188;2023-04-16T09:44:03;25.45;;;14.95;;
31818;SDS011;18384;48.860;9.188;2023-04-16T09:46:30;28.85;;;15.95;;
31818;SDS011;18384;48.860;9.188;2023-04-16T09:49:14;27.92;;;15.23;;
31818;SDS011;18384;48.860;9.188;2023-04-16T09:51:43;25.08;;;14.18;;
31818;SDS011;18384;48.860;9.188;2023-04-16T09:54:12;23.62;;;15.15;;
31818;SDS011;18384;48.860;9.188;2023-04-16T09:56:39;25.90;;;14.57;;
31818;SDS011;18384;48.860;9.188;2023-04-16T09:59:07;30.33;;;15.93;;
31818;SDS011;18384;48.860;9.188;2023-04-16T10:01:57;33.63;;;15.95;;
31818;SDS011;18384;48.860;9.188;2023-04-16T10:04:25;28.48;;;15.45;;
31818;SDS011;18384;48.860;9.188;2023-04-16T10:07:04;27.98;;;15.85;;
31818;SDS011;18384;48.860;9.188;2023-04-16T10:09:36;25.55;;;14.87;;
31818;SDS011;18384;48.860;9.188;2023-04-16T10:12:04;24.98;;;15.15;;
31818;SDS011;18384;48.860;9.188;2023-04-16T10:14:31;26.62;;;15.40;;
31818;SDS011;18384;48.860;9.188;2023-04-16T10:16:58;25.10;;;15.77;;
31818;SDS011;18384;48.860;9.188;2023-04-16T10:19:27;29.90;;;16.05;;
31818;SDS011;18384;48.860;9.188;2023-04-16T10:21:56;29.12;;;16.15;;
31818;SDS011;18384;48.860;9.188;2023-04-16T10:24:24;27.52;;;15.93;;
31818;SDS011;18384;48.860;9.188;2023-04-16T10:26:53;24.67;;;14.93;;
31818;SDS011;18384;48.860;9.188;2023-04-16T10:29:20;25.10;;;15.55;;
31818;SDS011;18384;48.860;9.188;2023-04-16T10:31:47;23.92;;;14.43;;
31818;SDS011;18384;48.860;9.188;2023-04-16T10:34:14;24.70;;;14.77;;
31818;SDS011;18384;48.860;9.188;2023-04-16T10:36:41;24.60;;;14.02;;
31818;SDS011;18384;48.860;9.188;2023-04-16T10:39:11;25.02;;;14.98;;
31818;SDS011;18384;48.860;9.188;2023-04-16T10:41:38;24.40;;;14.38;;
31818;SDS011;18384;48.860;9.188;2023-04-16T10:44:08;25.85;;;14.02;;
31818;SDS011;18384;48.860;9.188;2023-04-16T10:46:35;27.25;;;15.10;;
31818;SDS011;18384;48.860;9.188;2023-04-16T10:49:13;19.85;;;12.63;;
31818;SDS011;18384;48.860;9.188;2023-04-16T10:51:53;22.45;;;12.55;;
31818;SDS011;18384;48.860;9.188;2023-04-16T10:54:30;22.20;;;13.20;;
31818;SDS011;18384;48.860;9.188;2023-04-16T10:57:03;21.58;;;12.40;;
31818;SDS011;18384;48.860;9.188;2023-04-16T10:59:33;21.58;;;12.35;;
31818;SDS011;18384;48.860;9.188;2023-04-16T11:02:05;20.45;;;11.32;;
31818;SDS011;18384;48.860;9.188;2023-04-16T11:04:36;18.08;;;11.02;;
31818;SDS011;18384;48.860;9.188;2023-04-16T11:07:16;22.75;;;11.60;;
31818;SDS011;18384;48.860;9.188;2023-04-16T11:10:03;19.42;;;11.05;;
31818;SDS011;18384;48.860;9.188;2023-04-16T11:12:40;20.00;;;11.40;;
31818;SDS011;18384;48.860;9.188;2023-04-16T11:15:15;18.08;;;11.18;;
31818;SDS011;18384;48.860;9.188;2023-04-16T11:17:44;17.08;;;10.20;;
31818;SDS011;18384;48.860;9.188;2023-04-16T11:20:16;17.02;;;9.40;;
31818;SDS011;18384;48.860;9.188;2023-04-16T11:22:51;17.08;;;10.25;;
31818;SDS011;18384;48.860;9.188;2023-04-16T11:25:19;15.93;;;9.27;;
31818;SDS011;18384;48.860;9.188;2023-04-16T11:27:53;14.27;;;8.95;;
31818;SDS011;18384;48.860;9.188;2023-04-16T11:30:34;18.05;;;9.98;;
31818;SDS011;18384;48.860;9.188;2023-04-16T11:33:02;16.80;;;9.10;;
31818;SDS011;18384;48.860;9.188;2023-04-16T11:35:33;13.73;;;8.63;;
31818;SDS011;18384;48.860;9.188;2023-04-16T11:40:29;14.80;;;7.25;;
31818;SDS011;18384;48.860;9.188;2023-04-16T11:42:59;15.13;;;8.85;;
31818;SDS011;18384;48.860;9.188;2023-04-16T11:45:37;14.18;;;7.82;;
31818;SDS011;18384;48.860;9.188;2023-04-16T11:48:10;12.52;;;7.40;;
31818;SDS011;18384;48.860;9.188;2023-04-16T11:50:36;14.80;;;8.15;;
31818;SDS011;18384;48.860;9.188;2023-04-16T11:53:03;15.98;;;8.35;;
31818;SDS011;18384;48.860;9.188;2023-04-16T11:55:30;13.95;;;7.87;;
31818;SDS011;18384;48.860;9.188;2023-04-16T11:57:56;12.75;;;7.95;;
31818;SDS011;18384;48.860;9.188;2023-04-16T12:00:35;14.20;;;7.00;;
31818;SDS011;18384;48.860;9.188;2023-04-16T12:03:03;12.32;;;7.40;;
31818;SDS011;18384;48.860;9.188;2023-04-16T12:05:32;15.18;;;7.28;;
31818;SDS011;18384;48.860;9.188;2023-04-16T12:08:05;12.50;;;6.65;;
31818;SDS011;18384;48.860;9.188;2023-04-16T12:10:37;11.85;;;7.05;;
31818;SDS011;18384;48.860;9.188;2023-04-16T12:13:18;13.07;;;7.10;;
31818;SDS011;18384;48.860;9.188;2023-04-16T12:15:48;11.05;;;6.55;;
31818;SDS011;18384;48.860;9.188;2023-04-16T12:18:20;11.82;;;6.75;;
31818;SDS011;18384;48.860;9.188;2023-04-16T12:20:48;9.60;;;6.22;;
31818;SDS011;18384;48.860;9.188;2023-04-16T12:23:28;11.07;;;6.55;;
31818;SDS011;18384;48.860;9.188;2023-04-16T12:25:57;11.55;;;6.97;;
31818;SDS011;18384;48.860;9.188;2023-04-16T12:28:34;10.93;;;6.93;;
31818;SDS011;18384;48.860;9.188;2023-04-16T12:31:04;12.05;;;6.32;;
31818;SDS011;18384;48.860;9.188;2023-04-16T12:35:57;8.82;;;5.87;;
31818;SDS011;18384;48.860;9.188;2023-04-16T12:38:23;8.93;;;5.90;;
31818;SDS011;18384;48.860;9.188;2023-04-16T12:40:50;10.88;;;6.00;;
31818;SDS011;18384;48.860;9.188;2023-04-16T12:43:17;11.98;;;6.68;;
31818;SDS011;18384;48.860;9.188;2023-04-16T12:45:44;9.75;;;6.25;;
31818;SDS011;18384;48.860;9.188;2023-04-16T12:48:10;9.05;;;6.03;;
31818;SDS011;18384;48.860;9.188;2023-04-16T12:50:36;8.40;;;5.85;;
31818;SDS011;18384;48.860;9.188;2023-04-16T12:53:03;13.45;;;5.85;;
31818;SDS011;18384;48.860;9.188;2023-04-16T12:55:30;9.65;;;6.00;;
31818;SDS011;18384;48.860;9.188;2023-04-16T12:57:56;9.40;;;6.18;;
31818;SDS011;18384;48.860;9.188;2023-04-16T13:00:22;11.48;;;6.50;;
31818;SDS011;18384;48.860;9.188;2023-04-16T13:02:48;10.48;;;6.80;;
31818;SDS011;18384;48.860;9.188;2023-04-16T13:05:14;9.90;;;6.37;;
31818;SDS011;18384;48.860;9.188;2023-04-16T13:07:43;11.38;;;7.28;;
31818;SDS011;18384;48.860;9.188;2023-04-16T13:10:09;10.18;;;6.05;;
31818;SDS011;18384;48.860;9.188;2023-04-16T13:12:35;13.85;;;7.82;;
31818;SDS011;18384;48.860;9.188;2023-04-16T13:15:01;12.25;;;6.78;;
31818;SDS011;18384;48.860;9.188;2023-04-16T13:17:28;8.75;;;6.25;;
31818;SDS011;18384;48.860;9.188;2023-04-16T13:22:21;11.52;;;6.85;;
31818;SDS011;18384;48.860;9.188;2023-04-16T13:24:47;12.30;;;7.20;;
31818;SDS011;18384;48.860;9.188;2023-04-16T13:27:13;12.65;;;7.47;;
31818;SDS011;18384;48.860;9.188;2023-04-16T13:29:40;14.07;;;8.25;;
31818;SDS011;18384;48.860;9.188;2023-04-16T13:32:07;15.40;;;7.87;;
31818;SDS011;18384;48.860;9.188;2023-04-16T13:34:33;12.88;;;7.82;;
31818;SDS011;18384;48.860;9.188;2023-04-16T13:36:59;15.85;;;7.90;;
31818;SDS011;18384;48.860;9.188;2023-04-16T13:39:26;11.57;;;7.85;;
31818;SDS011;18384;48.860;9.188;2023-04-16T13:41:52;15.18;;;8.25;;
31818;SDS011;18384;48.860;9.188;2023-04-16T13:44:18;14.48;;;8.20;;
31818;SDS011;18384;48.860;9.188;2023-04-16T13:46:44;11.57;;;7.60;;
31818;SDS011;18384;48.860;9.188;2023-04-16T13:49:12;13.13;;;7.97;;
31818;SDS011;18384;48.860;9.188;2023-04-16T13:51:40;15.90;;;8.88;;
31818;SDS011;18384;48.860;9.188;2023-04-16T13:54:08;11.88;;;7.75;;
31818;SDS011;18384;48.860;9.188;2023-04-16T13:56:34;12.80;;;8.18;;
31818;SDS011;18384;48.860;9.188;2023-04-16T13:59:01;15.48;;;8.50;;
31818;SDS011;18384;48.860;9.188;2023-04-16T14:01:27;12.35;;;8.30;;
31818;SDS011;18384;48.860;9.188;2023-04-16T14:03:53;16.37;;;8.63;;
31818;SDS011;18384;48.860;9.188;2023-04-16T14:06:19;13.43;;;8.40;;
31818;SDS011;18384;48.860;9.188;2023-04-16T14:08:45;14.15;;;8.82;;
31818;SDS011;18384;48.860;9.188;2023-04-16T14:11:11;16.23;;;9.23;;
31818;SDS011;18384;48.860;9.188;2023-04-16T14:13:37;12.95;;;8.35;;
31818;SDS011;18384;48.860;9.188;2023-04-16T14:16:03;15.07;;;9.18;;
31818;SDS011;18384;48.860;9.188;2023-04-16T14:20:56;15.13;;;9.20;;
31818;SDS011;18384;48.860;9.188;2023-04-16T14:23:22;16.45;;;9.60;;
31818;SDS011;18384;48.860;9.188;2023-04-16T14:25:49;15.45;;;9.82;;
31818;SDS011;18384;48.860;9.188;2023-04-16T14:28:15;15.93;;;10.00;;
31818;SDS011;18384;48.860;9.188;2023-04-16T14:30:41;18.33;;;9.95;;
31818;SDS011;18384;48.860;9.188;2023-04-16T14:33:07;19.60;;;11.23;;
31818;SDS011;18384;48.860;9.188;2023-04-16T14:35:33;17.95;;;11.07;;
31818;SDS011;18384;48.860;9.188;2023-04-16T14:38:00;18.98;;;11.50;;
31818;SDS011;18384;48.860;9.188;2023-04-16T14:40:26;19.75;;;11.15;;
31818;SDS011;18384;48.860;9.188;2023-04-16T14:42:52;19.37;;;11.18;;
31818;SDS011;18384;48.860;9.188;2023-04-16T14:45:18;20.27;;;11.55;;
31818;SDS011;18384;48.860;9.188;2023-04-16T14:47:44;22.17;;;11.90;;
31818;SDS011;18384;48.860;9.188;2023-04-16T14:50:12;21.70;;;12.57;;
31818;SDS011;18384;48.860;9.188;2023-04-16T14:52:39;18.90;;;12.60;;
31818;SDS011;18384;48.860;9.188;2023-04-16T14:55:06;22.02;;;12.35;;
31818;SDS011;18384;48.860;9.188;2023-04-16T14:57:32;26.00;;;13.45;;